CPX242 Details

Departure: Huntsville International Airport (KHSV)
Arrival: Chicago/Rockford International Airport (KRFD) at N/A
Route: RQZ BNA J73 GUIDO JOT
Notes:


Current Weather Information
KHSV 191553Z 00000KT 10SM FEW250 33/21 A3007 RMK AO2 SLP174 T03330206 $
KRFD 191554Z 05007KT 10SM SCT033 OVC048 24/19 A3005 RMK AO2 SLP170 T02440189